createdAt,value
2023-04-26T00:02:18.506Z,89.00
2023-04-26T00:04:47.626Z,88.80
2023-04-26T00:07:17.045Z,89.20
2023-04-26T00:09:45.336Z,87.70
2023-04-26T00:12:13.300Z,89.20
2023-04-26T00:14:41.169Z,89.10
2023-04-26T00:17:09.052Z,89.20
2023-04-26T00:19:36.979Z,89.20
2023-04-26T00:22:05.572Z,83.60
2023-04-26T00:24:36.160Z,86.80
2023-04-26T00:27:08.920Z,87.80
2023-04-26T00:29:36.969Z,88.10
2023-04-26T00:32:05.223Z,88.30
2023-04-26T00:34:34.303Z,89.40
2023-04-26T00:37:02.203Z,89.30
2023-04-26T00:39:30.087Z,89.60
2023-04-26T00:41:59.426Z,87.60
2023-04-26T00:44:27.279Z,87.90
2023-04-26T00:46:55.880Z,86.00
2023-04-26T00:49:26.523Z,86.40
2023-04-26T00:51:55.324Z,86.50
2023-04-26T00:54:23.373Z,88.20
2023-04-26T00:56:53.218Z,87.40
2023-04-26T00:59:22.736Z,88.80
2023-04-26T01:01:50.828Z,89.10
2023-04-26T01:04:19.240Z,88.80
2023-04-26T01:06:48.238Z,90.20
2023-04-26T01:09:16.369Z,90.20
2023-04-26T01:11:45.258Z,88.90
2023-04-26T01:14:13.782Z,89.00
2023-04-26T01:16:46.877Z,89.60
2023-04-26T01:19:15.262Z,89.60
2023-04-26T01:21:43.799Z,88.80
2023-04-26T01:24:13.772Z,87.60
2023-04-26T01:26:45.692Z,87.60
2023-04-26T01:29:18.104Z,89.20
2023-04-26T01:31:46.565Z,89.20
2023-04-26T01:34:15.116Z,89.70
2023-04-26T01:36:43.451Z,89.30
2023-04-26T01:39:12.758Z,89.80
2023-04-26T01:41:40.617Z,90.10
2023-04-26T01:44:08.460Z,90.40
2023-04-26T01:46:36.400Z,90.50
2023-04-26T01:49:04.481Z,90.10
2023-04-26T01:51:32.657Z,90.10
2023-04-26T01:54:00.545Z,90.40
2023-04-26T01:56:29.859Z,90.10
2023-04-26T01:58:57.730Z,89.60
2023-04-26T02:01:25.648Z,90.10
2023-04-26T02:03:53.919Z,90.10
2023-04-26T02:06:22.239Z,90.50
2023-04-26T02:08:50.338Z,90.40
2023-04-26T02:11:18.345Z,85.80
2023-04-26T02:13:47.564Z,89.70
2023-04-26T02:16:16.506Z,89.80
2023-04-26T02:18:44.817Z,90.10
2023-04-26T02:21:13.011Z,90.00
2023-04-26T02:23:41.539Z,90.20
2023-04-26T02:26:09.444Z,90.40
2023-04-26T02:28:37.339Z,90.20
2023-04-26T02:31:06.853Z,90.40
2023-04-26T02:33:34.783Z,90.50
2023-04-26T02:36:05.421Z,90.60
2023-04-26T02:38:36.379Z,90.30
2023-04-26T02:41:05.595Z,90.40
2023-04-26T02:43:33.642Z,90.00
2023-04-26T02:46:01.654Z,89.30
2023-04-26T02:48:31.005Z,89.60
2023-04-26T02:50:58.913Z,90.00
2023-04-26T02:53:26.817Z,90.00
2023-04-26T02:55:54.676Z,90.20
2023-04-26T02:58:22.503Z,89.90
2023-04-26T03:00:50.533Z,89.70
2023-04-26T03:03:18.682Z,90.00
2023-04-26T03:05:48.047Z,89.40
2023-04-26T03:08:15.927Z,87.80
2023-04-26T03:10:45.727Z,89.30
2023-04-26T03:13:13.603Z,90.00
2023-04-26T03:15:46.125Z,90.00
2023-04-26T03:18:14.018Z,90.10
2023-04-26T03:20:42.583Z,90.00
2023-04-26T03:23:11.780Z,90.10
2023-04-26T03:25:39.651Z,90.00
2023-04-26T03:28:07.516Z,90.00
2023-04-26T03:30:35.394Z,90.00
2023-04-26T03:33:03.246Z,90.10
2023-04-26T03:35:31.425Z,90.00
2023-04-26T03:37:59.247Z,90.20
2023-04-26T03:40:28.505Z,90.00
2023-04-26T03:42:56.370Z,89.90
2023-04-26T03:45:24.937Z,89.80
2023-04-26T03:47:52.760Z,90.00
2023-04-26T03:50:20.831Z,89.80
2023-04-26T03:52:48.709Z,89.90
2023-04-26T03:55:16.846Z,89.70
2023-04-26T03:57:46.060Z,87.30
2023-04-26T04:00:15.217Z,88.60
2023-04-26T04:02:43.293Z,88.90
2023-04-26T04:05:11.396Z,89.70
2023-04-26T04:07:39.294Z,90.10
2023-04-26T04:10:08.082Z,89.70
2023-04-26T04:12:35.969Z,89.10
2023-04-26T04:15:05.829Z,88.90
2023-04-26T04:17:34.425Z,89.30
2023-04-26T04:20:05.175Z,90.10
2023-04-26T04:22:33.003Z,90.20
2023-04-26T04:25:00.947Z,90.10
2023-04-26T04:27:28.743Z,90.10
2023-04-26T04:29:56.576Z,90.30
2023-04-26T04:32:25.818Z,90.20
2023-04-26T04:34:54.254Z,90.10
2023-04-26T04:37:22.832Z,89.90
2023-04-26T04:39:50.721Z,90.00
2023-04-26T04:42:18.958Z,90.00
2023-04-26T04:44:46.881Z,90.10
2023-04-26T04:47:15.296Z,89.00
2023-04-26T04:49:44.430Z,87.40
2023-04-26T04:52:12.415Z,85.80
2023-04-26T04:54:40.307Z,83.30
2023-04-26T04:57:08.207Z,83.20
2023-04-26T04:59:36.254Z,80.00
2023-04-26T05:02:04.592Z,78.70
2023-04-26T05:04:34.400Z,76.20
2023-04-26T05:07:03.819Z,74.40
2023-04-26T05:09:31.658Z,72.60
2023-04-26T05:11:59.507Z,70.00
2023-04-26T05:14:27.336Z,71.10
2023-04-26T05:16:55.227Z,71.40
2023-04-26T05:19:23.094Z,68.70
2023-04-26T05:21:50.987Z,67.50
2023-04-26T05:24:20.150Z,65.10
2023-04-26T05:26:48.063Z,66.30
2023-04-26T05:29:16.608Z,64.60
2023-04-26T05:31:44.973Z,62.90
2023-04-26T05:34:12.928Z,62.30
2023-04-26T05:36:40.774Z,61.60
2023-04-26T05:39:08.842Z,61.80
2023-04-26T05:41:38.019Z,64.00
2023-04-26T05:44:06.210Z,64.20
2023-04-26T05:46:34.046Z,63.50
2023-04-26T05:49:01.996Z,61.90
2023-04-26T05:51:29.828Z,60.90
2023-04-26T05:53:58.031Z,58.60
2023-04-26T05:56:27.723Z,58.50
2023-04-26T05:58:56.862Z,59.80
2023-04-26T06:01:24.800Z,58.60
2023-04-26T06:03:55.102Z,58.50
2023-04-26T06:06:24.960Z,58.20
2023-04-26T06:08:52.937Z,57.40
2023-04-26T06:11:21.307Z,58.60
2023-04-26T06:13:49.404Z,57.60
2023-04-26T06:16:19.194Z,57.10
2023-04-26T06:18:47.018Z,55.70
2023-04-26T06:21:14.890Z,55.40
2023-04-26T06:23:42.803Z,54.80
2023-04-26T06:26:10.725Z,53.10
2023-04-26T06:28:39.961Z,52.50
2023-04-26T06:31:09.659Z,50.80
2023-04-26T06:33:38.835Z,47.40
2023-04-26T06:36:07.447Z,44.60
2023-04-26T06:38:35.415Z,43.20
2023-04-26T06:41:03.271Z,40.00
2023-04-26T06:43:31.096Z,39.00
2023-04-26T06:45:58.950Z,37.10
2023-04-26T06:48:27.376Z,41.00
2023-04-26T06:50:56.676Z,36.00
2023-04-26T06:53:24.479Z,36.50
2023-04-26T06:55:53.388Z,36.50
2023-04-26T06:58:21.245Z,34.00
2023-04-26T07:00:49.075Z,34.30
2023-04-26T07:03:17.196Z,34.00
2023-04-26T07:05:45.208Z,34.20
2023-04-26T07:08:14.740Z,34.90
2023-04-26T07:10:42.991Z,32.60
2023-04-26T07:13:10.811Z,32.40
2023-04-26T07:15:38.612Z,30.40
2023-04-26T07:18:06.469Z,29.80
2023-04-26T07:20:34.333Z,30.30
2023-04-26T07:23:02.164Z,30.00
2023-04-26T07:25:31.425Z,31.50
2023-04-26T07:27:59.239Z,31.80
2023-04-26T07:30:27.316Z,32.00
2023-04-26T07:32:55.217Z,31.50
2023-04-26T07:35:23.250Z,30.00
2023-04-26T07:37:51.096Z,29.70
2023-04-26T07:40:19.878Z,28.90
2023-04-26T07:42:49.092Z,26.80
2023-04-26T07:45:17.015Z,29.60
2023-04-26T07:47:45.277Z,29.10
2023-04-26T07:50:13.494Z,25.60
2023-04-26T07:52:43.291Z,26.20
2023-04-26T07:55:11.918Z,26.20
2023-04-26T07:57:39.732Z,27.10
2023-04-26T08:00:10.903Z,26.30
2023-04-26T08:05:11.395Z,26.90
2023-04-26T08:07:39.605Z,26.40
2023-04-26T08:10:08.361Z,28.20
2023-04-26T08:12:37.102Z,24.80
2023-04-26T08:15:05.765Z,24.50
2023-04-26T08:17:35.139Z,25.00
2023-04-26T08:20:04.975Z,24.70
2023-04-26T08:22:32.826Z,26.00
2023-04-26T08:25:00.735Z,26.50
2023-04-26T08:27:28.782Z,25.50
2023-04-26T08:29:56.936Z,22.90
2023-04-26T08:32:24.822Z,22.70
2023-04-26T08:34:54.048Z,23.20
2023-04-26T08:37:21.886Z,24.20
2023-04-26T08:39:49.719Z,24.90
2023-04-26T08:42:18.950Z,24.80
2023-04-26T08:44:47.078Z,27.00
2023-04-26T08:47:18.951Z,27.20
2023-04-26T08:49:50.291Z,27.30
2023-04-26T08:52:23.206Z,24.70
2023-04-26T08:54:52.927Z,25.80
2023-04-26T08:57:21.384Z,27.10
2023-04-26T08:59:49.598Z,27.80
2023-04-26T09:02:20.384Z,26.80
2023-04-26T09:04:49.186Z,27.60
2023-04-26T09:07:22.458Z,29.70
2023-04-26T09:09:51.405Z,27.90
2023-04-26T09:12:20.585Z,27.00
2023-04-26T09:14:48.968Z,28.40
2023-04-26T09:17:26.940Z,25.30
2023-04-26T09:19:55.335Z,26.20
2023-04-26T09:22:31.889Z,26.00
2023-04-26T09:24:59.974Z,25.40
2023-04-26T09:27:35.745Z,27.00
2023-04-26T09:30:09.565Z,25.00
2023-04-26T09:32:52.344Z,25.40
2023-04-26T09:35:26.572Z,24.30
2023-04-26T09:38:02.134Z,24.80
2023-04-26T09:40:35.810Z,25.30
2023-04-26T09:43:05.188Z,25.20
2023-04-26T09:45:35.614Z,27.40
2023-04-26T09:48:18.323Z,28.00
2023-04-26T09:50:46.973Z,23.80
2023-04-26T09:53:28.460Z,23.60
2023-04-26T09:55:57.067Z,22.70
2023-04-26T09:58:24.962Z,22.50
2023-04-26T10:00:54.535Z,22.00
2023-04-26T10:03:25.515Z,24.40
2023-04-26T10:05:53.731Z,22.10
2023-04-26T10:08:21.578Z,22.60
2023-04-26T10:10:51.372Z,21.70
2023-04-26T10:13:20.162Z,21.50
2023-04-26T10:15:49.483Z,20.20
2023-04-26T10:18:17.574Z,20.60
2023-04-26T10:20:51.716Z,20.60
2023-04-26T10:23:22.073Z,20.50
2023-04-26T10:25:51.343Z,20.20
2023-04-26T10:28:19.363Z,23.30
2023-04-26T10:30:57.397Z,23.80
2023-04-26T10:33:25.993Z,22.70
2023-04-26T10:36:11.405Z,23.00
2023-04-26T10:38:40.949Z,23.00
2023-04-26T10:41:39.911Z,22.40
2023-04-26T10:44:38.955Z,23.10
2023-04-26T10:47:07.732Z,22.10
2023-04-26T10:49:48.937Z,25.50
2023-04-26T10:52:20.094Z,23.30
2023-04-26T10:54:50.481Z,23.10
2023-04-26T10:57:20.042Z,25.50
2023-04-26T11:00:30.863Z,26.20
2023-04-26T11:03:04.246Z,22.80
2023-04-26T11:05:55.598Z,22.30
2023-04-26T11:08:27.945Z,22.70
2023-04-26T11:11:11.040Z,22.40
2023-04-26T11:13:41.622Z,22.20
2023-04-26T11:16:10.702Z,22.20
2023-04-26T11:18:41.930Z,20.40
2023-04-26T11:21:11.195Z,20.60
2023-04-26T11:23:39.212Z,21.70
2023-04-26T11:26:08.926Z,22.30
2023-04-26T11:28:38.100Z,21.80
2023-04-26T11:31:08.197Z,23.30
2023-04-26T11:33:36.173Z,22.20
2023-04-26T11:36:04.424Z,22.20
2023-04-26T11:38:32.320Z,23.70
2023-04-26T11:41:01.672Z,23.40
2023-04-26T11:43:36.822Z,23.10
2023-04-26T11:46:07.799Z,23.50
2023-04-26T11:48:37.688Z,22.20
2023-04-26T11:51:07.572Z,22.40
2023-04-26T11:53:40.302Z,23.10
2023-04-26T11:56:16.336Z,23.00
2023-04-26T11:58:46.581Z,22.20
2023-04-26T12:01:21.876Z,22.80
2023-04-26T12:03:51.786Z,22.10
2023-04-26T12:06:20.102Z,23.70
2023-04-26T12:08:52.416Z,23.50
2023-04-26T12:11:21.110Z,22.00
2023-04-26T12:13:49.109Z,25.10
2023-04-26T12:16:26.222Z,27.30
2023-04-26T12:18:56.693Z,25.70
2023-04-26T12:21:26.979Z,25.30
2023-04-26T12:23:56.920Z,24.40
2023-04-26T12:26:42.848Z,26.80
2023-04-26T12:29:10.679Z,23.40
2023-04-26T12:31:39.988Z,25.60
2023-04-26T12:34:08.044Z,23.00
2023-04-26T12:36:36.045Z,22.10
2023-04-26T12:39:05.422Z,20.10
2023-04-26T12:41:33.630Z,21.30
2023-04-26T12:44:01.724Z,20.10
2023-04-26T12:46:29.582Z,19.70
2023-04-26T12:48:58.770Z,18.30
2023-04-26T12:51:26.968Z,20.90
2023-04-26T12:53:54.810Z,18.90
2023-04-26T12:56:22.799Z,20.70
2023-04-26T12:58:50.690Z,21.20
2023-04-26T13:01:18.815Z,20.50
2023-04-26T13:03:47.036Z,19.80
2023-04-26T13:06:16.713Z,18.90
2023-04-26T13:08:44.604Z,19.80
2023-04-26T13:11:12.633Z,19.00
2023-04-26T13:13:44.406Z,20.00
2023-04-26T13:16:13.292Z,20.70
2023-04-26T13:18:41.838Z,20.40
2023-04-26T13:21:09.744Z,19.90
2023-04-26T13:23:38.940Z,19.10
2023-04-26T13:26:06.825Z,19.60
2023-04-26T13:28:36.120Z,19.50
2023-04-26T13:31:04.042Z,20.30
2023-04-26T13:33:32.559Z,20.60
2023-04-26T13:36:00.444Z,20.80
2023-04-26T13:38:28.258Z,21.30
2023-04-26T13:40:57.732Z,21.40
2023-04-26T13:43:25.901Z,23.60
2023-04-26T13:45:53.797Z,20.60
2023-04-26T13:48:21.811Z,22.10
2023-04-26T13:50:49.600Z,22.90
2023-04-26T13:53:17.502Z,21.70
2023-04-26T13:55:45.333Z,19.40
2023-04-26T13:58:14.854Z,19.50
2023-04-26T14:00:43.076Z,19.60
2023-04-26T14:03:11.032Z,20.40
2023-04-26T14:05:38.947Z,20.40
2023-04-26T14:08:08.071Z,21.10
2023-04-26T14:10:36.199Z,21.30
2023-04-26T14:13:04.033Z,22.50
2023-04-26T14:15:33.183Z,22.30
2023-04-26T14:18:01.073Z,20.50
2023-04-26T14:20:29.001Z,19.50
2023-04-26T14:22:56.814Z,21.60
2023-04-26T14:25:24.615Z,22.20
2023-04-26T14:27:53.584Z,21.20
2023-04-26T14:30:21.851Z,21.40
2023-04-26T14:32:51.250Z,21.00
2023-04-26T14:35:19.203Z,21.10
2023-04-26T14:37:47.056Z,20.50
2023-04-26T14:40:15.120Z,20.60
2023-04-26T14:42:45.809Z,18.90
2023-04-26T14:45:14.059Z,20.70
2023-04-26T14:47:41.975Z,20.00
2023-04-26T14:50:13.911Z,19.50
2023-04-26T14:52:42.122Z,18.80
2023-04-26T14:55:10.260Z,19.10
2023-04-26T14:57:38.067Z,20.10
2023-04-26T15:00:14.957Z,21.00
2023-04-26T15:02:42.891Z,21.60
2023-04-26T15:05:12.726Z,21.90
2023-04-26T15:07:41.147Z,21.50
2023-04-26T15:10:09.821Z,21.80
2023-04-26T15:12:37.786Z,22.60
2023-04-26T15:15:06.702Z,22.30
2023-04-26T15:17:34.602Z,21.10
2023-04-26T15:20:02.860Z,21.40
2023-04-26T15:22:34.867Z,21.50
2023-04-26T15:25:04.902Z,22.10
2023-04-26T15:27:34.779Z,22.30
2023-04-26T15:30:03.670Z,23.70
2023-04-26T15:32:32.017Z,21.30
2023-04-26T15:34:59.884Z,23.20
2023-04-26T15:37:27.715Z,23.70
2023-04-26T15:39:56.875Z,24.60
2023-04-26T15:42:24.709Z,22.20
2023-04-26T15:44:52.518Z,23.00
2023-04-26T15:47:20.490Z,20.80
2023-04-26T15:49:48.346Z,23.20
2023-04-26T15:52:17.022Z,22.40
2023-04-26T15:54:44.834Z,21.10
2023-04-26T15:57:13.980Z,22.10
2023-04-26T15:59:41.805Z,20.90
2023-04-26T16:02:09.624Z,20.10
2023-04-26T16:04:37.675Z,21.90
2023-04-26T16:07:05.607Z,22.50
2023-04-26T16:09:33.459Z,22.20
2023-04-26T16:12:03.464Z,21.20
2023-04-26T16:14:33.634Z,21.40
2023-04-26T16:17:01.680Z,21.00
2023-04-26T16:19:29.525Z,21.00
2023-04-26T16:21:57.424Z,21.70
2023-04-26T16:24:25.510Z,20.90
2023-04-26T16:26:53.348Z,22.00
2023-04-26T16:29:21.339Z,21.90
2023-04-26T16:31:50.589Z,21.10
2023-04-26T16:34:18.644Z,21.60
2023-04-26T16:36:46.463Z,21.00
2023-04-26T16:39:16.137Z,20.90
2023-04-26T16:41:44.246Z,20.00
2023-04-26T16:44:12.149Z,21.60
2023-04-26T16:46:40.220Z,21.90
2023-04-26T16:49:10.890Z,22.40
2023-04-26T16:51:38.810Z,21.50
2023-04-26T16:54:07.031Z,21.90
2023-04-26T16:56:34.828Z,21.70
2023-04-26T16:59:02.889Z,21.60
2023-04-26T17:01:30.956Z,21.90
2023-04-26T17:03:59.162Z,20.40
2023-04-26T17:06:28.589Z,21.10
2023-04-26T17:08:56.455Z,21.20
2023-04-26T17:11:24.253Z,22.10
2023-04-26T17:13:52.076Z,22.70
2023-04-26T17:16:19.873Z,23.60
2023-04-26T17:18:47.987Z,24.00
2023-04-26T17:21:15.910Z,25.50
2023-04-26T17:23:45.074Z,24.70
2023-04-26T17:26:12.861Z,24.00
2023-04-26T17:28:41.495Z,25.30
2023-04-26T17:31:09.437Z,27.30
2023-04-26T17:33:37.743Z,27.40
2023-04-26T17:36:06.384Z,29.30
2023-04-26T17:38:34.445Z,28.20
2023-04-26T17:41:03.629Z,31.10
2023-04-26T17:43:31.556Z,30.20
2023-04-26T17:45:59.440Z,32.10
2023-04-26T17:48:29.010Z,32.40
2023-04-26T17:50:56.941Z,30.60
2023-04-26T17:53:24.796Z,31.20
2023-04-26T17:55:53.067Z,31.40
2023-04-26T17:58:22.332Z,32.00
2023-04-26T18:00:50.552Z,31.00
2023-04-26T18:03:20.018Z,31.80
2023-04-26T18:05:48.331Z,32.00
2023-04-26T18:08:16.212Z,32.20
2023-04-26T18:10:44.871Z,32.00
2023-04-26T18:13:14.143Z,31.30
2023-04-26T18:15:43.300Z,32.50
2023-04-26T18:18:11.159Z,31.90
2023-04-26T18:20:39.071Z,32.90
2023-04-26T18:23:06.991Z,32.80
2023-04-26T18:25:34.835Z,37.70
2023-04-26T18:28:02.648Z,46.70
2023-04-26T18:30:30.492Z,46.40
2023-04-26T18:32:59.707Z,45.60
2023-04-26T18:35:27.615Z,45.30
2023-04-26T18:37:55.574Z,44.40
2023-04-26T18:40:23.412Z,42.80
2023-04-26T18:42:51.811Z,44.90
2023-04-26T18:45:19.814Z,44.10
2023-04-26T18:47:47.678Z,44.00
2023-04-26T18:50:17.006Z,43.10
2023-04-26T18:52:44.801Z,41.40
2023-04-26T18:55:12.761Z,40.90
2023-04-26T18:57:40.647Z,39.70
2023-04-26T19:00:09.903Z,40.10
2023-04-26T19:02:40.145Z,41.50
2023-04-26T19:05:09.679Z,43.20
2023-04-26T19:07:39.059Z,45.30
2023-04-26T19:10:08.430Z,47.00
2023-04-26T19:12:36.363Z,47.30
2023-04-26T19:15:04.351Z,47.50
2023-04-26T19:17:33.328Z,47.00
2023-04-26T19:20:01.213Z,48.00
2023-04-26T19:22:29.099Z,46.10
2023-04-26T19:24:58.382Z,46.80
2023-04-26T19:27:26.289Z,45.50
2023-04-26T19:29:54.180Z,45.30
2023-04-26T19:32:22.906Z,44.40
2023-04-26T19:34:52.117Z,44.90
2023-04-26T19:37:20.289Z,44.80
2023-04-26T19:39:48.107Z,44.20
2023-04-26T19:42:17.425Z,44.40
2023-04-26T19:44:45.252Z,51.80
2023-04-26T19:47:13.792Z,49.90
2023-04-26T19:49:42.300Z,46.90
2023-04-26T19:52:10.261Z,49.30
2023-04-26T19:54:38.372Z,54.10
2023-04-26T19:57:06.254Z,52.50
2023-04-26T19:59:35.448Z,52.20
2023-04-26T20:02:04.125Z,51.50
2023-04-26T20:04:32.087Z,52.70
2023-04-26T20:06:59.991Z,52.20
2023-04-26T20:09:27.808Z,51.60
2023-04-26T20:11:55.618Z,49.70
2023-04-26T20:14:23.599Z,49.80
2023-04-26T20:16:52.934Z,49.90
2023-04-26T20:19:20.916Z,49.10
2023-04-26T20:21:48.834Z,47.80
2023-04-26T20:24:17.116Z,47.70
2023-04-26T20:26:45.042Z,47.80
2023-04-26T20:29:12.883Z,51.30
2023-04-26T20:31:41.111Z,54.50
2023-04-26T20:34:10.310Z,58.60
2023-04-26T20:36:38.132Z,59.70
2023-04-26T20:39:06.090Z,65.70
2023-04-26T20:41:34.129Z,65.70
2023-04-26T20:44:02.336Z,70.20
2023-04-26T20:46:30.296Z,74.10
2023-04-26T20:48:58.131Z,81.70
2023-04-26T20:51:27.441Z,82.10
2023-04-26T20:53:55.360Z,82.60
2023-04-26T20:56:23.547Z,80.10
2023-04-26T20:58:51.369Z,77.30
2023-04-26T21:01:19.315Z,74.00
2023-04-26T21:03:47.262Z,74.40
2023-04-26T21:06:15.163Z,70.30
2023-04-26T21:08:44.527Z,72.50
2023-04-26T21:11:12.346Z,75.70
2023-04-26T21:13:40.218Z,76.20
2023-04-26T21:16:08.604Z,77.70
2023-04-26T21:18:36.457Z,80.20
2023-04-26T21:21:04.478Z,80.20
2023-04-26T21:23:33.206Z,80.70
2023-04-26T21:26:02.372Z,80.30
2023-04-26T21:28:30.152Z,79.40
2023-04-26T21:31:04.811Z,75.80
2023-04-26T21:33:32.901Z,75.20
2023-04-26T21:36:01.199Z,72.40
2023-04-26T21:38:29.100Z,76.70
2023-04-26T21:40:56.915Z,79.40
2023-04-26T21:43:26.253Z,77.90
2023-04-26T21:45:58.083Z,76.30
2023-04-26T21:48:26.779Z,76.50
2023-04-26T21:50:54.650Z,75.00
2023-04-26T21:53:22.509Z,78.60
2023-04-26T21:55:52.608Z,75.30
2023-04-26T21:58:20.540Z,73.10
2023-04-26T22:00:50.489Z,70.60
2023-04-26T22:03:19.664Z,69.40
2023-04-26T22:05:47.613Z,70.00
2023-04-26T22:08:15.473Z,75.80
2023-04-26T22:10:43.368Z,71.80
2023-04-26T22:13:11.507Z,70.30
2023-04-26T22:15:39.328Z,73.70
2023-04-26T22:18:08.533Z,74.40
2023-04-26T22:20:36.369Z,76.80
2023-04-26T22:23:04.211Z,78.70
2023-04-26T22:25:32.064Z,78.60
2023-04-26T22:27:59.888Z,80.40
2023-04-26T22:30:27.971Z,82.30
2023-04-26T22:32:57.776Z,78.30
2023-04-26T22:35:28.471Z,76.20
2023-04-26T22:37:56.469Z,77.10
2023-04-26T22:40:24.326Z,76.50
2023-04-26T22:42:52.167Z,77.70
2023-04-26T22:45:20.453Z,82.20
2023-04-26T22:47:48.352Z,86.00
2023-04-26T22:50:16.167Z,86.70
2023-04-26T22:52:45.405Z,87.60
2023-04-26T22:55:13.262Z,88.20
2023-04-26T22:57:41.089Z,88.70
2023-04-26T23:00:12.432Z,89.00
2023-04-26T23:02:40.648Z,86.50
2023-04-26T23:05:10.526Z,88.20
2023-04-26T23:07:38.569Z,86.40
2023-04-26T23:10:08.918Z,85.50
2023-04-26T23:12:37.057Z,87.40
2023-04-26T23:15:06.044Z,84.60
2023-04-26T23:17:34.738Z,81.90
2023-04-26T23:20:11.654Z,84.70
2023-04-26T23:22:40.148Z,80.90
2023-04-26T23:25:10.805Z,81.10
2023-04-26T23:27:38.931Z,81.10
2023-04-26T23:30:08.085Z,80.90
2023-04-26T23:32:35.967Z,82.30
2023-04-26T23:35:03.994Z,80.60
2023-04-26T23:37:31.981Z,80.00
2023-04-26T23:39:59.777Z,81.10
2023-04-26T23:42:28.964Z,83.40
2023-04-26T23:44:56.933Z,84.40
2023-04-26T23:47:24.776Z,80.40
2023-04-26T23:49:52.588Z,82.90
2023-04-26T23:52:20.578Z,81.60
2023-04-26T23:54:48.393Z,78.60
2023-04-26T23:57:16.246Z,76.30
2023-04-26T23:59:45.580Z,75.80
